Terminal Aerodrome Forecast
Issued by NWS

Home | Current Version | Previous Version | Text Only | Print | Product List | Glossary On
Versions: 1 2 3 4 5 6 7 8 9 10 11 12 13 14 15 16 17 18 19
887
FTUS43 KGRR 260102 AAA
TAFAZO
TAF AMD
KAZO 260102Z 2601/2624 09011KT 2SM RA BR OVC008
     FM260600 10006KT 2SM -RA BR VCTS OVC009CB
     FM260900 12006KT 1SM -RA BR VCTS OVC005CB
     FM261400 16008KT 2SM -RA BR OVC005
     FM262200 22008KT 2SM -RA BR VCTS OVC015CB=

USA.gov is the U.S. government's official web portal to all federal, state and local government web resources and services.